Time;durP1;ratioP1;P1;durP2;ratioP2;P2;SDS_P1;SDS_P2;PMS_P1;PMS_P2;Temp;Humidity;BMP_temperature;BMP_pressure;BME280_temperature;BME280_humidity;BME280_pressure;Samples;Min_cycle;Max_cycle;Signal;HPM_P1;HPM_P2
2021/12/18 00:01:53;;;;;;;35.88;18.05;;;;;;;1.94;78.81;99881.63;5138890;27;20489;-92
2021/12/18 00:04:27;;;;;;;42.55;18.85;;;;;;;1.84;79.28;99886.66;5139398;27;20039;-94
2021/12/18 00:06:54;;;;;;;43.35;20.17;;;;;;;1.95;79.97;99878.13;5139126;27;20075;-92
2021/12/18 00:09:25;;;;;;;41.10;22.73;;;;;;;2.02;80.29;99901.06;5139289;27;20074;-94
2021/12/18 00:11:54;;;;;;;40.17;20.58;;;;;;;1.91;80.43;99900.81;5139421;27;20071;-94
2021/12/18 00:14:20;;;;;;;47.13;21.95;;;;;;;1.79;81.59;99875.13;5138426;27;20047;-92
2021/12/18 00:16:46;;;;;;;42.58;21.58;;;;;;;1.94;81.37;99913.97;5138631;27;20074;-94
2021/12/18 00:19:12;;;;;;;48.60;21.15;;;;;;;1.88;80.87;99908.56;5138584;27;20042;-96
2021/12/18 00:21:40;;;;;;;50.28;22.17;;;;;;;1.79;82.08;99905.72;5138528;27;20047;-94
2021/12/18 00:24:09;;;;;;;40.90;19.83;;;;;;;1.77;81.74;99905.66;5138943;27;20043;-93
2021/12/18 00:26:35;;;;;;;46.30;22.08;;;;;;;1.60;81.49;99886.84;5139964;27;20050;-92
2021/12/18 00:29:02;;;;;;;46.22;22.85;;;;;;;1.72;81.80;99912.53;5138836;27;20035;-93
2021/12/18 00:31:27;;;;;;;42.42;18.48;;;;;;;1.51;81.75;99878.75;5139246;27;20057;-93
2021/12/18 00:33:53;;;;;;;40.33;19.45;;;;;;;1.61;81.81;99907.00;5138785;27;20134;-93
2021/12/18 00:36:21;;;;;;;34.63;17.55;;;;;;;1.51;81.26;99899.72;5139044;27;20039;-93
2021/12/18 00:38:50;;;;;;;37.28;18.38;;;;;;;1.59;82.01;99926.16;5138860;27;20043;-92
2021/12/18 00:41:35;;;;;;;44.10;19.20;;;;;;;1.40;82.57;99909.03;5139571;27;20078;-93
2021/12/18 00:44:02;;;;;;;38.65;18.45;;;;;;;1.31;82.48;99904.41;5133527;27;20464;-94
2021/12/18 00:46:29;;;;;;;43.63;20.80;;;;;;;1.50;82.16;99932.03;5138535;27;20396;-93
2021/12/18 00:48:55;;;;;;;45.55;21.00;;;;;;;1.32;81.84;99902.69;5138372;27;20476;-92
2021/12/18 00:51:23;;;;;;;40.53;20.45;;;;;;;1.26;83.73;99915.59;5138897;27;20051;-93
2021/12/18 00:53:51;;;;;;;54.27;23.67;;;;;;;1.28;83.13;99906.97;5138169;27;20039;-94
2021/12/18 00:56:17;;;;;;;46.75;21.38;;;;;;;1.39;84.47;99939.59;5139205;27;20095;-93
2021/12/18 00:58:44;;;;;;;44.15;20.77;;;;;;;1.25;84.19;99924.31;5138087;27;20134;-94
2021/12/18 01:01:10;;;;;;;44.53;22.48;;;;;;;1.14;84.65;99926.63;5138196;27;20044;-94
2021/12/18 01:03:40;;;;;;;53.03;25.92;;;;;;;1.06;84.23;99910.66;5139111;27;20122;-94
2021/12/18 01:06:06;;;;;;;48.50;22.10;;;;;;;1.11;84.00;99921.31;5138380;27;20053;-94
2021/12/18 01:08:32;;;;;;;50.00;22.38;;;;;;;1.10;83.91;99925.63;5138384;27;20095;-93
2021/12/18 01:13:58;;;;;;;45.28;21.98;;;;;;;1.08;84.71;99942.16;5133781;27;20860;-93
2021/12/18 01:16:34;;;;;;;45.20;21.42;;;;;;;1.08;85.50;99944.78;5133397;28;20075;-93
2021/12/18 01:25:02;;;;;;;47.42;21.38;;;;;;;1.07;85.36;99950.88;5108234;27;20744;-95
2021/12/18 01:27:27;;;;;;;46.53;21.63;;;;;;;0.99;84.81;99942.78;5092196;28;20040;-94
2021/12/18 01:29:53;;;;;;;49.38;24.42;;;;;;;0.96;84.99;99934.84;5103500;28;20127;-93
2021/12/18 01:32:19;;;;;;;50.65;23.73;;;;;;;0.91;84.95;99939.94;5112716;28;20127;-92
2021/12/18 01:34:45;;;;;;;48.20;22.92;;;;;;;0.87;85.37;99937.16;5112662;28;20050;-93
2021/12/18 01:37:12;;;;;;;45.83;21.42;;;;;;;0.92;85.83;99954.78;5107561;28;20036;-92
2021/12/18 01:39:38;;;;;;;47.58;20.88;;;;;;;0.85;85.44;99942.38;5092203;28;20040;-93
2021/12/18 01:54:30;;;;;;;39.35;18.30;;;;;;;0.77;86.50;99936.00;5113563;27;20361;-92
2021/12/18 01:56:56;;;;;;;40.15;18.30;;;;;;;0.82;85.34;99940.56;5114074;28;20476;-93
2021/12/18 01:59:37;;;;;;;35.65;16.52;;;;;;;0.96;85.10;99964.53;5114395;28;20044;-92
2021/12/18 02:02:05;;;;;;;43.15;18.67;;;;;;;0.79;84.77;99919.50;5114874;28;20043;-93
2021/12/18 02:04:33;;;;;;;42.10;21.67;;;;;;;0.90;85.54;99946.00;5094580;28;20131;-92
2021/12/18 02:07:00;;;;;;;45.15;20.30;;;;;;;0.89;85.70;99940.72;5100405;28;20035;-95
2021/12/18 02:09:33;;;;;;;42.20;21.05;;;;;;;0.97;85.96;99960.16;5113294;28;20050;-94
2021/12/18 02:12:00;;;;;;;43.20;22.45;;;;;;;0.73;85.59;99931.50;5113086;28;20051;-93
2021/12/18 02:23:38;;;;;;;33.72;16.88;;;;;;;1.07;82.88;99967.47;5177407;27;20378;-93
2021/12/18 02:26:04;;;;;;;36.25;18.02;;;;;;;0.98;82.33;99951.50;5176962;27;20054;-93
2021/12/18 02:28:33;;;;;;;33.65;18.20;;;;;;;0.74;82.29;99925.44;5176355;27;20115;-94
2021/12/18 02:30:59;;;;;;;36.08;18.02;;;;;;;0.86;81.90;99940.63;5176045;27;20038;-94
2021/12/18 02:33:28;;;;;;;12.50;5.57;;;;;;;2.31;72.36;99911.41;5175308;27;20042;-92
2021/12/18 02:35:57;;;;;;;;;;;;;;;3.34;67.88;99929.47;5176073;27;20093;-93
2021/12/18 02:38:32;;;;;;;6.93;4.00;;;;;;;4.36;64.15;99908.53;5175794;27;19927;-93
2021/12/18 02:44:02;;;;;;;5.78;3.40;;;;;;;5.22;60.69;99917.69;5093040;27;20366;-94
2021/12/18 02:46:28;;;;;;;;;;;;;;;5.71;59.96;99939.41;5093056;28;20048;-91
2021/12/18 02:48:55;;;;;;;7.82;4.20;;;;;;;5.96;58.23;99925.63;5093405;28;20392;-91
2021/12/18 02:51:22;;;;;;;8.25;3.63;;;;;;;6.00;58.28;99909.81;5085003;28;20059;-94
2021/12/18 02:53:51;;;;;;;6.70;3.63;;;;;;;6.05;58.08;99902.81;5093264;28;20043;-92
2021/12/18 02:56:23;;;;;;;8.32;3.70;;;;;;;6.02;58.05;99902.78;5093235;28;20101;-92
2021/12/18 02:58:51;;;;;;;5.97;3.33;;;;;;;5.91;59.08;99906.19;5093934;28;20078;-95
2021/12/18 03:01:20;;;;;;;6.38;3.20;;;;;;;6.33;58.22;99927.72;5091968;28;20044;-94
2021/12/18 03:03:47;;;;;;;4.85;3.30;;;;;;;6.39;57.86;99911.91;5093064;28;20036;-93
2021/12/18 03:24:31;;;;;;;7.63;2.95;;;;;;;6.45;58.55;99932.25;5108085;27;20370;-91
2021/12/18 03:26:57;;;;;;;5.55;3.00;;;;;;;6.32;58.51;99913.63;5094485;28;20048;-91
2021/12/18 03:29:23;;;;;;;6.25;3.10;;;;;;;6.42;58.65;99926.91;5093572;28;20062;-92
2021/12/18 03:31:49;;;;;;;6.90;3.20;;;;;;;6.38;58.03;99915.44;5092111;28;20555;-92
2021/12/18 03:34:15;;;;;;;5.25;2.70;;;;;;;6.52;57.92;99942.84;5087836;28;20043;-92
2021/12/18 03:36:42;;;;;;;6.97;3.05;;;;;;;6.32;58.10;99924.19;5092726;28;20048;-95
2021/12/18 03:39:09;;;;;;;5.13;2.85;;;;;;;6.36;58.55;99939.22;5094311;28;20040;-91
2021/12/18 03:41:36;;;;;;;5.45;3.10;;;;;;;6.33;58.57;99946.22;5094993;28;20040;-91
2021/12/18 03:44:02;;;;;;;8.25;3.60;;;;;;;6.17;58.66;99932.00;5110393;28;20493;-93
2021/12/18 03:46:28;;;;;;;6.93;3.50;;;;;;;6.11;58.98;99924.00;5113005;28;20047;-93
2021/12/18 03:48:54;;;;;;;5.65;3.25;;;;;;;6.09;59.28;99918.69;5098586;28;20048;-93
2021/12/18 03:51:20;;;;;;;7.43;3.67;;;;;;;6.16;59.44;99939.03;5090593;28;20496;-92
2021/12/18 03:53:46;;;;;;;6.25;3.60;;;;;;;6.15;59.52;99939.88;5092865;28;20075;-93
2021/12/18 03:56:12;;;;;;;9.55;4.07;;;;;;;6.06;60.45;99933.66;5091351;28;20563;-93
2021/12/18 03:58:41;;;;;;;10.63;4.38;;;;;;;5.83;61.10;99897.28;5091941;28;20090;-93
2021/12/18 04:01:10;;;;;;;9.27;4.20;;;;;;;5.82;62.11;99916.66;5091683;28;20044;-92
2021/12/18 04:03:35;;;;;;;10.15;4.97;;;;;;;5.60;63.03;99897.06;5092716;28;20043;-93
2021/12/18 04:06:01;;;;;;;10.93;5.78;;;;;;;5.71;64.02;99936.78;5091500;28;20039;-94
2021/12/18 04:08:27;;;;;;;11.82;5.32;;;;;;;5.83;64.51;99944.81;5092951;28;20060;-93
2021/12/18 04:10:54;;;;;;;10.27;5.20;;;;;;;5.96;64.42;99938.84;5091172;28;20067;-91
2021/12/18 04:13:20;;;;;;;9.25;5.05;;;;;;;5.80;64.89;99909.59;5091112;28;20090;-94
2021/12/18 04:15:47;;;;;;;13.27;5.53;;;;;;;5.95;65.92;99942.34;5090777;28;20048;-92
2021/12/18 04:18:13;;;;;;;11.07;5.85;;;;;;;6.08;65.62;99951.28;5092055;28;20070;-91
2021/12/18 04:20:40;;;;;;;11.13;6.25;;;;;;;6.11;66.20;99946.00;5093432;28;20424;-91
2021/12/18 04:23:06;;;;;;;13.65;6.05;;;;;;;6.25;66.30;99945.28;5092022;28;20044;-91
2021/12/18 04:25:32;;;;;;;12.23;5.78;;;;;;;6.33;66.20;99952.41;5092108;28;20505;-92
2021/12/18 04:27:58;;;;;;;10.60;5.22;;;;;;;6.33;66.10;99954.13;5092575;28;20447;-93
2021/12/18 04:30:24;;;;;;;13.05;5.50;;;;;;;6.26;66.86;99933.81;5092478;28;20048;-94
2021/12/18 04:32:51;;;;;;;13.70;5.68;;;;;;;6.57;66.58;99966.66;5091901;28;20028;-92
2021/12/18 04:35:17;;;;;;;12.25;5.60;;;;;;;6.58;67.08;99955.25;5068166;28;20468;-89
2021/12/18 04:37:43;;;;;;;13.23;5.93;;;;;;;6.58;66.63;99949.97;5069610;28;20063;-94
2021/12/18 04:40:10;;;;;;;11.45;5.15;;;;;;;6.64;67.19;99980.84;5079110;28;20078;-94
2021/12/18 04:42:36;;;;;;;17.15;6.22;;;;;;;6.40;67.42;99957.72;5078888;28;20053;-92
2021/12/18 04:45:04;;;;;;;13.20;5.45;;;;;;;6.23;67.59;99939.97;5078210;28;20044;-94
2021/12/18 04:47:30;;;;;;;12.95;5.93;;;;;;;6.32;67.73;99971.75;5078474;28;20525;-92
2021/12/18 04:49:57;;;;;;;14.38;6.50;;;;;;;6.06;68.07;99946.84;5078786;28;20036;-92
2021/12/18 04:52:24;;;;;;;12.65;5.85;;;;;;;6.07;68.08;99968.00;5078203;28;20486;-94
2021/12/18 04:54:53;;;;;;;13.20;5.88;;;;;;;6.20;67.94;99961.06;5078212;28;20486;-93
2021/12/18 04:57:19;;;;;;;13.65;6.85;;;;;;;6.43;67.53;99992.09;5077871;28;20393;-94
2021/12/18 04:59:45;;;;;;;12.65;6.40;;;;;;;6.33;67.29;99975.28;5078078;28;20136;-93
2021/12/18 05:02:15;;;;;;;12.10;6.25;;;;;;;6.37;67.67;100003.50;5077379;28;20045;-94
2021/12/18 05:04:42;;;;;;;13.73;6.00;;;;;;;6.17;67.77;99976.88;5078233;28;20041;-91
2021/12/18 05:07:10;;;;;;;12.93;6.00;;;;;;;6.29;67.44;99977.00;5078344;28;20055;-92
2021/12/18 05:09:36;;;;;;;12.77;5.93;;;;;;;6.25;67.85;99964.66;5078355;28;20045;-93
2021/12/18 05:12:03;;;;;;;12.13;6.15;;;;;;;6.42;68.25;99998.25;5079088;28;20036;-93
2021/12/18 05:14:28;;;;;;;11.15;5.47;;;;;;;6.41;68.35;99996.50;5077441;28;20479;-94
2021/12/18 05:16:54;;;;;;;13.90;6.20;;;;;;;6.30;68.77;99989.34;5078012;28;20048;-91
2021/12/18 05:19:20;;;;;;;11.13;5.18;;;;;;;6.42;68.75;100022.94;5078415;28;20045;-93
2021/12/18 05:21:47;;;;;;;14.65;6.22;;;;;;;6.31;68.90;99999.06;5076958;28;20106;-93
2021/12/18 05:24:17;;;;;;;12.02;6.05;;;;;;;6.31;69.54;100014.91;5076668;28;20041;-93
2021/12/18 05:26:43;;;;;;;13.90;6.10;;;;;;;6.34;69.46;100021.97;5077344;28;20036;-92
2021/12/18 05:29:08;;;;;;;14.32;5.60;;;;;;;6.36;69.86;100012.31;5077523;28;20040;-92
2021/12/18 05:31:39;;;;;;;13.60;5.32;;;;;;;6.39;70.10;100030.81;5077228;28;20099;-92
2021/12/18 05:34:05;;;;;;;10.80;5.32;;;;;;;6.22;70.29;99993.66;5077732;28;20458;-93
2021/12/18 05:39:17;;;;;;;12.05;5.78;;;;;;;6.23;70.87;100006.00;5093033;27;20386;-93
2021/12/18 05:41:44;;;;;;;14.20;6.32;;;;;;;6.12;71.99;100021.75;5094341;28;20048;-95
2021/12/18 05:44:10;;;;;;;11.80;5.68;;;;;;;6.10;72.06;100014.69;5093646;28;20512;-94
2021/12/18 05:46:36;;;;;;;13.18;6.13;;;;;;;6.19;71.54;100016.53;5091591;28;20041;-93
2021/12/18 05:49:03;;;;;;;13.45;5.80;;;;;;;6.08;72.00;100016.41;5092583;28;20529;-92
2021/12/18 05:51:30;;;;;;;14.43;5.95;;;;;;;5.86;73.42;100024.03;5092882;28;20058;-93
2021/12/18 05:53:59;;;;;;;13.00;6.10;;;;;;;5.97;73.37;100030.38;5093620;28;20048;-93
2021/12/18 05:56:27;;;;;;;15.93;6.47;;;;;;;6.08;72.29;100005.84;5093632;28;20041;-93
2021/12/18 05:58:53;;;;;;;13.63;5.50;;;;;;;6.30;71.74;100020.16;5099238;28;20032;-93
2021/12/18 06:01:19;;;;;;;13.45;5.10;;;;;;;6.36;71.21;100009.66;5093080;28;20044;-91
2021/12/18 06:03:45;;;;;;;14.85;5.90;;;;;;;6.57;70.63;100040.66;5110329;28;20097;-93
2021/12/18 06:06:11;;;;;;;14.55;5.88;;;;;;;6.46;71.21;100040.59;5102230;28;20052;-93
2021/12/18 06:08:38;;;;;;;15.77;6.30;;;;;;;6.28;71.75;100040.38;5093218;28;20382;-95
2021/12/18 06:14:09;;;;;;;13.52;5.95;;;;;;;6.46;70.93;100055.53;5109596;27;20382;-93
2021/12/18 06:16:35;;;;;;;13.32;6.55;;;;;;;6.47;70.51;100047.63;5093149;28;20413;-93
2021/12/18 06:19:01;;;;;;;11.55;5.32;;;;;;;6.58;69.95;100047.75;5093621;28;20071;-90
2021/12/18 06:21:27;;;;;;;15.32;5.68;;;;;;;6.51;70.58;100062.66;5093445;28;20037;-93
2021/12/18 06:23:54;;;;;;;24.52;7.32;;;;;;;6.52;70.11;100045.91;5093215;28;20037;-92
2021/12/18 06:26:22;;;;;;;13.52;6.07;;;;;;;6.50;70.28;100046.78;5093164;28;20052;-92
2021/12/18 06:28:48;;;;;;;13.02;5.47;;;;;;;6.71;69.99;100067.25;5092961;28;20036;-93
2021/12/18 06:31:16;;;;;;;17.67;5.43;;;;;;;6.51;70.32;100040.63;5092733;28;20044;-93
2021/12/18 06:33:42;;;;;;;13.13;5.40;;;;;;;6.48;70.71;100067.88;5093299;28;20127;-92
2021/12/18 06:36:09;;;;;;;12.93;5.53;;;;;;;6.43;71.36;100074.91;5094145;28;20066;-93
2021/12/18 06:38:34;;;;;;;14.18;6.03;;;;;;;6.33;71.36;100068.66;5093362;28;20067;-93
2021/12/18 06:41:00;;;;;;;16.48;6.05;;;;;;;6.29;71.43;100069.47;5093695;28;20044;-93
2021/12/18 06:43:26;;;;;;;12.07;5.45;;;;;;;6.29;71.71;100079.13;5093116;28;20044;-93
2021/12/18 06:45:52;;;;;;;12.70;5.97;;;;;;;6.20;71.59;100074.63;5092459;28;20044;-92
2021/12/18 06:48:19;;;;;;;13.00;5.75;;;;;;;6.20;71.66;100079.91;5093543;28;20367;-92
2021/12/18 06:50:47;;;;;;;11.95;5.45;;;;;;;5.90;72.86;100067.22;5093792;28;20045;-93
2021/12/18 06:53:12;;;;;;;12.02;5.55;;;;;;;5.70;73.72;100083.69;5093234;28;20050;-93
2021/12/18 06:55:40;;;;;;;16.90;6.00;;;;;;;5.53;75.29;100088.72;5092247;28;20036;-92
2021/12/18 06:58:06;;;;;;;15.35;6.13;;;;;;;5.71;74.42;100110.97;5072702;28;20166;-94
2021/12/18 07:00:32;;;;;;;18.52;7.25;;;;;;;5.61;74.18;100099.38;5071694;28;20498;-93
2021/12/18 07:02:59;;;;;;;13.75;6.55;;;;;;;5.85;74.21;100108.50;5073523;28;20068;-93
2021/12/18 07:05:31;;;;;;;11.93;6.10;;;;;;;5.97;73.91;100108.69;5092824;28;20402;-95
2021/12/18 07:07:56;;;;;;;15.50;6.85;;;;;;;6.02;73.82;100108.75;5093172;28;20094;-93
2021/12/18 07:10:22;;;;;;;15.15;6.90;;;;;;;6.22;72.95;100120.44;5092525;28;20444;-92
2021/12/18 07:12:48;;;;;;;18.48;7.90;;;;;;;6.16;72.69;100108.06;5092054;28;20136;-93
2021/12/18 07:15:15;;;;;;;19.65;7.15;;;;;;;6.08;72.71;100091.22;5092418;28;20103;-93
2021/12/18 07:17:41;;;;;;;17.35;7.55;;;;;;;6.15;72.64;100102.75;5092450;28;20046;-91
2021/12/18 07:20:09;;;;;;;15.77;7.35;;;;;;;6.02;72.92;100108.75;5092706;28;20033;-93
2021/12/18 07:22:39;;;;;;;13.55;6.63;;;;;;;6.01;73.12;100092.03;5092742;28;20049;-93
2021/12/18 07:25:06;;;;;;;16.52;7.00;;;;;;;6.09;73.06;100102.69;5080759;28;20390;-93
2021/12/18 07:27:32;;;;;;;20.23;7.07;;;;;;;6.12;72.91;100113.28;5078728;28;20068;-93
2021/12/18 07:29:57;;;;;;;15.77;7.55;;;;;;;6.12;72.81;100119.44;5077972;28;20368;-93
2021/12/18 07:32:23;;;;;;;17.15;7.50;;;;;;;6.04;72.77;100112.31;5077297;28;20490;-92
2021/12/18 07:34:49;;;;;;;17.08;7.65;;;;;;;6.07;72.60;100128.19;5077469;28;20626;-92
2021/12/18 07:37:15;;;;;;;15.95;7.25;;;;;;;6.15;71.70;100121.25;5079473;28;20047;-94
2021/12/18 07:39:42;;;;;;;17.95;7.47;;;;;;;5.98;71.38;100113.09;5079433;28;20048;-92
2021/12/18 07:42:08;;;;;;;22.67;10.25;;;;;;;5.96;71.94;100110.47;5078505;28;20068;-93
2021/12/18 07:44:34;;;;;;;22.45;10.90;;;;;;;5.90;72.47;100126.19;5079053;28;20071;-93
2021/12/18 07:47:01;;;;;;;19.65;8.93;;;;;;;5.79;72.86;100098.75;5079041;28;20127;-93
2021/12/18 07:49:27;;;;;;;24.10;10.18;;;;;;;5.94;72.78;100122.75;5078282;28;20045;-92
2021/12/18 07:51:59;;;;;;;21.63;9.00;;;;;;;6.03;71.84;100118.44;5077390;28;20624;-94
2021/12/18 07:54:27;;;;;;;20.00;8.68;;;;;;;5.93;71.99;100110.38;5078047;28;20037;-94
2021/12/18 07:56:55;;;;;;;20.13;8.40;;;;;;;6.10;72.77;100126.47;5079402;28;20090;-92
2021/12/18 07:59:20;;;;;;;19.25;8.20;;;;;;;6.22;72.16;100101.06;5077982;28;20072;-94
2021/12/18 08:01:46;;;;;;;17.75;7.30;;;;;;;6.28;72.11;100107.31;5078206;28;20451;-95
2021/12/18 08:04:12;;;;;;;19.00;7.82;;;;;;;6.48;72.18;100126.03;5077889;28;20044;-96
2021/12/18 08:06:38;;;;;;;18.73;8.05;;;;;;;6.64;71.23;100129.75;5077950;28;20094;-94
2021/12/18 08:09:04;;;;;;;18.80;8.15;;;;;;;6.74;70.62;100123.69;5079123;28;20094;-94
2021/12/18 08:11:30;;;;;;;17.48;7.38;;;;;;;7.03;69.92;100144.22;5078121;28;20041;-94
2021/12/18 08:13:57;;;;;;;17.58;7.93;;;;;;;7.12;70.15;100144.31;5077363;28;20131;-93
2021/12/18 08:16:23;;;;;;;17.23;7.75;;;;;;;7.27;69.55;100148.84;5077328;28;20048;-93
2021/12/18 08:18:49;;;;;;;20.63;7.10;;;;;;;7.28;69.10;100126.81;5078760;28;20078;-95
2021/12/18 08:21:15;;;;;;;20.92;6.63;;;;;;;7.30;69.61;100126.81;5078163;28;20075;-94
2021/12/18 08:23:43;;;;;;;24.58;9.73;;;;;;;7.37;68.53;100129.53;5080457;28;20029;-95
2021/12/18 08:26:09;;;;;;;29.47;11.20;;;;;;;7.53;68.59;100156.13;5078503;28;20036;-93
2021/12/18 08:28:35;;;;;;;29.25;11.05;;;;;;;7.68;68.33;100165.94;5078080;28;20048;-95
2021/12/18 08:31:02;;;;;;;18.90;8.02;;;;;;;7.71;67.82;100158.00;5078414;28;20045;-95
2021/12/18 08:33:28;;;;;;;21.35;8.18;;;;;;;7.68;67.65;100145.63;5077803;28;20067;-94
2021/12/18 08:35:54;;;;;;;24.10;10.85;;;;;;;7.80;67.79;100139.53;5077433;28;20112;-94
2021/12/18 08:38:20;;;;;;;18.98;8.20;;;;;;;8.06;68.49;100171.47;5080214;28;20047;-93
2021/12/18 08:40:46;;;;;;;16.83;8.32;;;;;;;8.10;66.28;100172.38;5076690;28;20363;-94
2021/12/18 08:43:12;;;;;;;17.40;7.68;;;;;;;7.96;66.58;100159.94;5076945;28;20064;-94
2021/12/18 08:45:39;;;;;;;21.00;8.57;;;;;;;7.93;66.83;100162.56;5076436;28;20124;-94
2021/12/18 08:48:06;;;;;;;15.23;7.55;;;;;;;8.16;66.30;100189.19;5077806;28;20036;-93
2021/12/18 08:50:35;;;;;;;13.25;6.97;;;;;;;8.37;65.47;100180.47;5079832;28;20478;-95
2021/12/18 08:53:01;;;;;;;19.70;8.63;;;;;;;8.21;64.70;100152.09;5083595;28;20106;-95
2021/12/18 08:55:27;;;;;;;21.48;9.23;;;;;;;8.28;64.58;100158.31;5081310;28;20048;-96
2021/12/18 08:57:53;;;;;;;18.40;8.32;;;;;;;8.38;64.47;100155.72;5081515;28;20112;-96
2021/12/18 09:00:30;;;;;;;22.15;8.20;;;;;;;8.61;63.68;100165.56;5080724;28;20044;-94
2021/12/18 09:03:00;;;;;;;17.65;7.20;;;;;;;8.58;63.66;100149.63;5081322;28;20499;-94
2021/12/18 09:05:29;;;;;;;17.45;9.35;;;;;;;8.55;62.71;100182.34;5078665;28;20041;-93
2021/12/18 09:07:56;;;;;;;21.70;8.93;;;;;;;8.53;63.11;100159.34;5080613;28;20079;-94
2021/12/18 09:10:23;;;;;;;23.30;8.60;;;;;;;8.59;62.69;100146.13;5083313;28;20044;-96
2021/12/18 09:12:50;;;;;;;15.27;7.95;;;;;;;8.81;62.22;100182.41;5080875;28;20040;-94
2021/12/18 09:15:16;;;;;;;21.20;9.25;;;;;;;8.76;62.11;100147.06;5097631;28;20051;-93
2021/12/18 09:17:42;;;;;;;17.58;8.15;;;;;;;8.71;61.05;100135.53;5089267;28;20036;-94
2021/12/18 09:20:09;;;;;;;35.03;13.38;;;;;;;8.94;61.60;100154.16;5076526;28;20053;-92
2021/12/18 09:22:36;;;;;;;16.30;6.88;;;;;;;9.08;60.84;100158.59;5079302;28;20041;-94
2021/12/18 09:25:05;;;;;;;20.27;7.78;;;;;;;9.21;60.27;100163.03;5081074;28;20044;-94
2021/12/18 09:27:31;;;;;;;15.80;6.32;;;;;;;9.46;58.89;100171.91;5081150;28;20481;-95
2021/12/18 09:29:57;;;;;;;18.30;5.85;;;;;;;9.53;58.37;100170.13;5084448;28;20064;-95
2021/12/18 09:32:23;;;;;;;12.20;5.93;;;;;;;9.54;58.51;100178.09;5077559;28;20051;-94
2021/12/18 09:34:49;;;;;;;15.65;5.57;;;;;;;9.61;57.99;100168.34;5080326;28;20043;-92
2021/12/18 09:37:15;;;;;;;12.57;5.47;;;;;;;9.61;57.48;100163.03;5080607;28;20093;-95
2021/12/18 09:39:43;;;;;;;13.07;5.63;;;;;;;9.69;56.88;100165.66;5079804;28;20040;-93
2021/12/18 09:42:09;;;;;;;26.77;9.40;;;;;;;9.49;57.21;100145.31;5078636;28;20036;-95
2021/12/18 09:44:35;;;;;;;15.02;5.45;;;;;;;9.80;56.21;100164.78;5079701;28;20053;-95
2021/12/18 09:47:02;;;;;;;13.25;6.57;;;;;;;9.62;56.72;100139.13;5079199;28;20048;-94
2021/12/18 09:49:28;;;;;;;15.20;7.20;;;;;;;9.83;56.97;100154.13;5077723;28;20478;-93
2021/12/18 09:51:54;;;;;;;17.25;7.25;;;;;;;9.86;57.01;100166.53;5081139;28;20041;-94
2021/12/18 09:54:21;;;;;;;25.35;12.27;;;;;;;9.83;55.31;100147.94;5078236;28;20139;-92
2021/12/18 09:56:48;;;;;;;11.20;4.85;;;;;;;9.91;54.91;100153.22;5079630;28;20505;-93
2021/12/18 09:59:14;;;;;;;12.73;5.88;;;;;;;9.86;53.71;100132.88;5081677;28;20052;-92
2021/12/18 10:01:40;;;;;;;12.20;5.32;;;;;;;10.12;54.31;100146.97;5081263;28;20397;-94
2021/12/18 10:04:24;;;;;;;12.27;4.95;;;;;;;9.97;53.21;100102.72;5081921;28;20041;-95
2021/12/18 10:06:50;;;;;;;12.40;6.15;;;;;;;9.79;52.26;100119.63;5078244;28;20115;-95
2021/12/18 10:09:32;;;;;;;12.13;4.45;;;;;;;10.10;51.54;100138.13;5098541;28;20093;-93
2021/12/18 10:12:02;;;;;;;9.23;4.72;;;;;;;9.84;50.13;100113.38;5088168;28;20052;-93
2021/12/18 10:14:34;;;;;;;13.65;5.78;;;;;;;10.14;50.06;100146.09;5077602;28;20066;-93
2021/12/18 10:16:59;;;;;;;12.70;5.65;;;;;;;10.07;48.90;100129.28;5078032;28;20114;-94
2021/12/18 10:19:28;;;;;;;24.67;13.90;;;;;;;10.23;49.17;100138.06;5079203;28;20131;-96
2021/12/18 10:21:58;;;;;;;13.53;6.27;;;;;;;10.12;48.74;100117.75;5078185;28;20049;-94
2021/12/18 10:24:25;;;;;;;17.08;5.90;;;;;;;9.99;48.05;100123.09;5077688;28;20112;-94
2021/12/18 10:26:51;;;;;;;15.32;6.90;;;;;;;10.02;47.85;100119.56;5080558;28;20052;-96
2021/12/18 10:29:28;;;;;;;16.15;8.85;;;;;;;10.02;46.61;100130.19;5077996;28;20079;-94
2021/12/18 10:31:55;;;;;;;12.73;4.65;;;;;;;9.93;47.14;100114.25;5061947;28;20398;-94
2021/12/18 10:34:23;;;;;;;13.00;5.43;;;;;;;10.01;47.62;100131.94;5087199;28;20040;-93
2021/12/18 10:37:23;;;;;;;12.77;5.07;;;;;;;10.14;46.76;100139.91;5082006;28;20040;-91
2021/12/18 10:39:59;;;;;;;14.27;6.15;;;;;;;10.00;46.41;100131.97;5033539;28;20052;-91
2021/12/18 10:42:28;;;;;;;12.27;4.65;;;;;;;10.05;46.53;100128.41;5036314;28;20173;-94
2021/12/18 10:45:16;;;;;;;10.90;4.88;;;;;;;9.78;47.05;100116.09;5034197;28;20113;-93
2021/12/18 10:47:44;;;;;;;11.90;5.15;;;;;;;9.65;47.58;100104.59;5032117;28;20053;-94
2021/12/18 10:50:17;;;;;;;13.20;5.88;;;;;;;9.84;48.24;100093.91;5036641;28;20041;-95
2021/12/18 10:52:44;;;;;;;15.50;6.63;;;;;;;9.89;45.99;100132.00;5037000;28;20128;-93
2021/12/18 10:55:09;;;;;;;10.68;5.70;;;;;;;9.71;46.19;100108.13;5035576;28;20045;-94
2021/12/18 10:57:35;;;;;;;17.15;6.05;;;;;;;9.83;47.51;100108.97;5036081;28;20153;-94
2021/12/18 11:00:05;;;;;;;13.57;5.30;;;;;;;9.87;47.23;100102.78;5035611;28;20104;-93
2021/12/18 11:02:41;;;;;;;13.10;5.72;;;;;;;9.64;45.58;100092.19;5048769;28;20132;-95
2021/12/18 11:05:15;;;;;;;15.30;6.00;;;;;;;9.65;46.17;100101.94;5037085;28;20113;-92
2021/12/18 11:07:46;;;;;;;16.00;5.72;;;;;;;9.85;45.71;100101.00;5034004;28;20128;-93
2021/12/18 11:10:40;;;;;;;16.00;6.60;;;;;;;9.83;45.28;100094.81;5051643;28;20048;-91
2021/12/18 11:16:13;;;;;;;9.95;4.72;;;;;;;9.74;44.52;100078.91;5114595;27;20381;-93
2021/12/18 11:18:42;;;;;;;10.15;4.90;;;;;;;9.82;44.60;100083.31;5115787;28;20075;-92
2021/12/18 11:21:09;;;;;;;10.95;4.35;;;;;;;9.90;44.55;100101.88;5114381;28;20048;-94
2021/12/18 11:26:50;;;;;;;15.10;6.00;;;;;;;9.73;44.61;100071.81;5116468;27;20376;-93
2021/12/18 11:29:21;;;;;;;10.35;4.85;;;;;;;9.76;43.30;100067.38;5115762;28;20040;-93
2021/12/18 11:31:49;;;;;;;12.98;5.10;;;;;;;9.84;44.13;100083.28;5117672;28;20503;-94
2021/12/18 11:34:17;;;;;;;11.48;5.43;;;;;;;9.77;43.67;100079.75;5118953;28;20064;-94
2021/12/18 11:36:45;;;;;;;8.88;5.00;;;;;;;9.71;43.67;100071.81;5120226;28;20051;-94
2021/12/18 11:39:17;;;;;;;8.43;4.25;;;;;;;9.76;42.91;100090.38;5119897;28;20032;-93
2021/12/18 11:41:47;;;;;;;10.70;4.10;;;;;;;9.86;42.99;100108.06;5116702;28;20366;-94
2021/12/18 11:44:34;;;;;;;13.23;4.22;;;;;;;9.66;43.24;100074.47;5116222;28;20042;-94
2021/12/18 11:47:27;;;;;;;10.85;4.97;;;;;;;9.60;42.82;100063.00;5116082;28;20040;-93
2021/12/18 11:49:56;;;;;;;12.60;4.88;;;;;;;9.78;43.16;100080.63;5119682;28;20479;-93
2021/12/18 11:52:25;;;;;;;12.50;5.22;;;;;;;9.81;43.76;100070.03;5118751;28;20044;-94
2021/12/18 11:54:54;;;;;;;;;;;;;;;9.96;41.26;100088.56;5118113;28;20114;-92
2021/12/18 11:57:43;;;;;;;14.48;4.78;;;;;;;9.86;41.98;100076.19;5115513;28;19934;-92
2021/12/18 12:00:30;;;;;;;;;;;;;;;9.92;41.78;100092.13;5108669;28;20040;-92
2021/12/18 12:03:00;;;;;;;12.02;4.75;;;;;;;9.76;41.91;100071.78;5103906;28;20037;-92
2021/12/18 12:05:34;;;;;;;8.23;4.65;;;;;;;9.75;39.21;100067.38;5114694;28;20039;-93
2021/12/18 12:08:18;;;;;;;8.60;3.85;;;;;;;9.87;40.55;100070.88;5113476;28;20079;-94
2021/12/18 12:11:16;;;;;;;12.20;3.65;;;;;;;9.86;41.06;100079.72;5114465;28;20048;-93
2021/12/18 12:14:06;;;;;;;7.05;3.70;;;;;;;9.76;41.00;100058.50;5112464;28;20051;-93
2021/12/18 12:17:07;;;;;;;8.63;3.60;;;;;;;9.96;40.53;100079.72;5115919;28;20044;-94
2021/12/18 12:19:51;;;;;;;11.02;3.88;;;;;;;9.88;39.67;100079.72;5116168;28;20040;-93
2021/12/18 12:22:48;;;;;;;9.52;4.00;;;;;;;9.82;40.97;100058.50;5116322;28;20050;-94
2021/12/18 12:25:36;;;;;;;11.65;3.85;;;;;;;9.72;40.87;100059.44;5116754;28;20052;-94
2021/12/18 12:28:05;;;;;;;9.25;4.38;;;;;;;9.65;42.05;100062.09;5114884;28;20043;-95
2021/12/18 12:30:43;;;;;;;8.27;4.38;;;;;;;9.55;41.37;100046.19;5114706;28;20412;-95
2021/12/18 12:33:12;;;;;;;9.65;4.22;;;;;;;9.66;40.78;100071.81;5119562;28;20058;-95
2021/12/18 12:35:53;;;;;;;12.60;4.10;;;;;;;9.54;41.02;100055.94;5118022;28;20032;-94
2021/12/18 12:38:23;;;;;;;8.50;3.88;;;;;;;9.66;41.24;100100.16;5103617;28;20052;-94
2021/12/18 12:40:49;;;;;;;8.85;4.05;;;;;;;9.60;42.06;100076.28;5107167;28;20105;-95